Time;durP1;ratioP1;P1;durP2;ratioP2;P2;SDS_P1;SDS_P2;PMS_P1;PMS_P2;Temp;Humidity;BMP_temperature;BMP_pressure;BME280_temperature;BME280_humidity;BME280_pressure;Samples;Min_cycle;Max_cycle;Signal;HPM_P1;HPM_P2
2023/02/04 00:00:08;;;;;;;;;;;;;;;-0.10;79.28;99205.31;4967672;28;20020;-67
2023/02/04 00:02:37;;;;;;;;;;;;;;;-0.06;79.28;99200.34;4981859;28;19929;-67
2023/02/04 00:05:02;;;;;;;;;;;;;;;-0.02;79.21;99199.69;4978972;28;19934;-67
2023/02/04 00:07:28;;;;;;;;;;;;;;;-0.02;79.21;99199.69;4961734;28;20392;-67
2023/02/04 00:09:54;;;;;;;;;;;;;;;-0.04;79.55;99206.31;4929070;28;20028;-67
2023/02/04 00:12:20;;;;;;;;;;;;;;;-0.04;79.54;99200.94;4945673;28;19930;-67
2023/02/04 00:14:45;;;;;;;;;;;;;;;-0.07;79.31;99207.59;4964092;28;20379;-67
2023/02/04 00:17:11;;;;;;;;;;;;;;;-0.15;79.53;99208.69;4967224;28;19934;-67
2023/02/04 00:19:39;;;;;;;;;;;;;;;-0.22;79.62;99210.59;4983571;28;20016;-67
2023/02/04 00:22:06;;;;;;;;;;;;;;;-0.23;79.93;99214.31;4966477;28;19929;-67
2023/02/04 00:24:32;;;;;;;;;;;;;;;-0.25;80.22;99221.78;4982893;28;19940;-68
2023/02/04 00:26:57;;;;;;;;;;;;;;;-0.21;80.29;99212.22;4962364;28;19930;-68
2023/02/04 00:29:23;;;;;;;;;;;;;;;-0.17;80.26;99226.06;4984732;28;20482;-68
2023/02/04 00:31:49;;;;;;;;;;;;;;;-0.18;80.46;99213.66;4981658;28;20468;-68
2023/02/04 00:34:14;;;;;;;;;;;;;;;-0.21;80.39;99222.97;4994418;28;19930;-68
2023/02/04 00:36:41;;;;;;;;;;;;;;;-0.21;80.70;99224.88;4984190;28;19930;-68
2023/02/04 00:39:07;;;;;;;;;;;;;;;-0.22;80.74;99220.53;4970664;28;19930;-68
2023/02/04 00:41:33;;;;;;;;;;;;;;;-0.17;80.72;99221.50;4970264;28;19952;-68
2023/02/04 00:43:59;;;;;;;;;;;;;;;-0.11;80.72;99227.88;4983748;28;19957;-68
2023/02/04 00:46:24;;;;;;;;;;;;;;;-0.10;80.82;99218.75;4983509;28;19934;-68
2023/02/04 00:48:50;;;;;;;;;;;;;;;-0.06;80.64;99221.84;4983290;28;19930;-67
2023/02/04 00:51:16;;;;;;;;;;;;;;;-0.04;80.66;99228.66;4981020;28;19929;-68
2023/02/04 00:53:43;;;;;;;;;;;;;;;-0.05;80.63;99234.22;4967064;28;20044;-67
2023/02/04 00:56:09;;;;;;;;;;;;;;;-0.05;80.65;99243.13;4965754;28;19929;-67
2023/02/04 00:58:35;;;;;;;;;;;;;;;-0.03;80.29;99240.22;4985498;28;20365;-67
2023/02/04 01:01:01;;;;;;;;;;;;;;;-0.03;80.33;99238.38;4970406;28;19979;-67
2023/02/04 01:03:27;;;;;;;;;;;;;;;0.00;80.37;99237.13;4983786;28;19936;-68
2023/02/04 01:05:52;;;;;;;;;;;;;;;-0.03;80.28;99248.28;4986403;28;19960;-67
2023/02/04 01:08:18;;;;;;;;;;;;;;;-0.04;80.38;99252.00;4969274;28;20301;-67
2023/02/04 01:10:45;;;;;;;;;;;;;;;-0.05;80.67;99255.75;4987702;28;19936;-67
2023/02/04 01:13:11;;;;;;;;;;;;;;;-0.04;80.76;99257.38;5003808;28;20171;-68
2023/02/04 01:15:37;;;;;;;;;;;;;;;-0.05;80.98;99250.38;4972546;28;20393;-67
2023/02/04 01:18:02;;;;;;;;;;;;;;;-0.07;81.21;99247.91;4969117;28;19934;-67
2023/02/04 01:20:28;;;;;;;;;;;;;;;-0.08;81.32;99248.13;4982825;28;19957;-67
2023/02/04 01:22:54;;;;;;;;;;;;;;;-0.06;81.27;99241.50;4986037;28;19936;-67
2023/02/04 01:25:19;;;;;;;;;;;;;;;-0.07;81.36;99247.06;4964109;28;19975;-67
2023/02/04 01:27:46;;;;;;;;;;;;;;;-0.05;81.61;99258.44;4933837;28;19930;-67
2023/02/04 01:30:13;;;;;;;;;;;;;;;-0.04;81.66;99257.38;4935003;28;19992;-67
2023/02/04 01:32:39;;;;;;;;;;;;;;;-0.04;81.67;99255.53;4987445;28;19930;-67
2023/02/04 01:35:06;;;;;;;;;;;;;;;-0.10;81.65;99252.91;5000530;28;19984;-67
2023/02/04 01:37:32;;;;;;;;;;;;;;;-0.16;81.97;99255.41;4969238;28;20375;-67
2023/02/04 01:39:58;;;;;;;;;;;;;;;-0.17;82.13;99261.81;4968541;28;20036;-68
2023/02/04 01:42:24;;;;;;;;;;;;;;;-0.19;82.29;99263.09;4968313;28;19936;-68
2023/02/04 01:44:51;;;;;;;;;;;;;;;-0.18;82.21;99264.72;4969674;28;19969;-67
2023/02/04 01:47:17;;;;;;;;;;;;;;;-0.13;82.56;99266.78;4992867;28;19930;-68
2023/02/04 01:49:43;;;;;;;;;;;;;;;-0.16;82.49;99254.59;4972344;28;19930;-67
2023/02/04 01:52:10;;;;;;;;;;;;;;;-0.10;82.46;99267.13;4987315;28;19930;-67
2023/02/04 01:54:36;;;;;;;;;;;;;;;-0.06;82.53;99278.28;4966418;28;20811;-67
2023/02/04 01:57:02;;;;;;;;;;;;;;;-0.05;82.42;99282.63;4983530;28;19984;-68
2023/02/04 01:59:28;;;;;;;;;;;;;;;-0.03;82.13;99277.84;4984808;28;20174;-67
2023/02/04 02:01:55;;;;;;;;;;;;;;;-0.04;82.04;99282.41;4969168;28;20301;-67
2023/02/04 02:04:27;;;;;;;;;;;;;;;-0.07;82.17;99288.22;4985605;28;19930;-67
2023/02/04 02:06:54;;;;;;;;;;;;;;;-0.02;81.91;99285.72;4968535;28;20407;-68
2023/02/04 02:09:19;;;;;;;;;;;;;;;0.05;81.57;99290.19;4968740;28;19936;-67
2023/02/04 02:11:45;;;;;;;;;;;;;;;0.04;81.41;99296.63;4982988;28;20436;-67
2023/02/04 02:14:11;;;;;;;;;;;;;;;0.01;81.64;99297.91;4984952;28;19929;-67
2023/02/04 02:16:37;;;;;;;;;;;;;;;0.04;81.50;99304.69;4985242;28;19937;-67
2023/02/04 02:19:05;;;;;;;;;;;;;;;-0.02;81.38;99309.91;4993801;28;19929;-68
2023/02/04 02:21:35;;;;;;;;;;;;;;;0.01;81.37;99297.91;4969299;28;19988;-67
2023/02/04 02:24:22;;;;;;;;;;;;;;;-0.01;81.35;99297.25;4967533;28;19929;-68
2023/02/04 02:26:48;;;;;;;;;;;;;;;-0.06;81.75;99306.00;4985019;28;19929;-67
2023/02/04 02:29:13;;;;;;;;;;;;;;;-0.04;81.62;99308.47;4983049;28;19936;-67
2023/02/04 02:31:39;;;;;;;;;;;;;;;-0.04;81.62;99303.09;4987035;28;19977;-68
2023/02/04 02:34:05;;;;;;;;;;;;;;;-0.06;81.45;99310.53;4985359;28;19988;-68
2023/02/04 02:36:31;;;;;;;;;;;;;;;-0.11;81.19;99308.50;4963726;28;20352;-69
2023/02/04 02:38:58;;;;;;;;;;;;;;;-0.12;80.50;99309.53;4986801;28;19934;-68
2023/02/04 02:41:27;;;;;;;;;;;;;;;-0.11;80.45;99310.38;5003727;28;19956;-67
2023/02/04 02:43:53;;;;;;;;;;;;;;;-0.08;80.36;99316.16;4985896;28;19961;-68
2023/02/04 02:46:18;;;;;;;;;;;;;;;-0.23;80.45;99286.06;4983540;28;19929;-67
2023/02/04 02:48:44;;;;;;;;;;;;;;;-0.03;80.46;99316.31;4965812;28;19929;-67
2023/02/04 02:51:10;;;;;;;;;;;;;;;-0.01;80.21;99318.78;4966969;28;19997;-67
2023/02/04 02:53:36;;;;;;;;;;;;;;;0.01;80.40;99313.19;4968698;28;19929;-67
2023/02/04 02:56:04;;;;;;;;;;;;;;;-0.02;80.05;99323.34;4998306;28;20397;-67
2023/02/04 02:58:33;;;;;;;;;;;;;;;-0.04;80.26;99330.81;4966290;28;19937;-67
2023/02/04 03:00:59;;;;;;;;;;;;;;;-0.04;80.04;99328.13;4968781;28;20316;-67
2023/02/04 03:03:27;;;;;;;;;;;;;;;-0.04;80.00;99329.97;4973014;28;19929;-67
2023/02/04 03:05:54;;;;;;;;;;;;;;;-0.03;80.13;99332.44;4986461;28;19934;-67
2023/02/04 03:08:20;;;;;;;;;;;;;;;0.01;80.18;99326.63;4967029;28;19930;-67
2023/02/04 03:10:46;;;;;;;;;;;;;;;0.04;79.99;99339.63;4965599;28;19936;-67
2023/02/04 03:13:13;;;;;;;;;;;;;;;0.04;79.80;99337.78;4967164;28;19960;-67
2023/02/04 03:15:41;;;;;;;;;;;;;;;0.04;79.65;99339.63;4981642;28;20069;-66
2023/02/04 03:18:07;;;;;;;;;;;;;;;0.00;79.46;99339.25;4964389;28;19929;-66
2023/02/04 03:20:35;;;;;;;;;;;;;;;-0.03;79.32;99339.66;4965834;28;20033;-66
2023/02/04 03:23:00;;;;;;;;;;;;;;;-0.09;79.49;99341.34;4983417;28;20391;-66
2023/02/04 03:25:27;;;;;;;;;;;;;;;-0.07;79.85;99341.16;4967211;28;19930;-65
2023/02/04 03:27:53;;;;;;;;;;;;;;;-0.07;79.89;99351.91;4966165;28;19941;-66
2023/02/04 03:30:19;;;;;;;;;;;;;;;-0.05;80.08;99341.75;4947577;28;19998;-66
2023/02/04 03:32:46;;;;;;;;;;;;;;;-0.02;80.37;99347.53;4982229;28;20466;-66
2023/02/04 03:35:12;;;;;;;;;;;;;;;-0.04;80.36;99352.31;4986682;28;19937;-66
2023/02/04 03:37:38;;;;;;;;;;;;;;;-0.03;80.68;99351.25;4986356;28;19933;-65
2023/02/04 03:40:04;;;;;;;;;;;;;;;-0.06;80.61;99359.75;4981033;28;19930;-65
2023/02/04 03:42:30;;;;;;;;;;;;;;;-0.06;80.83;99359.75;4984368;28;19929;-67
2023/02/04 03:44:56;;;;;;;;;;;;;;;-0.04;80.81;99357.69;4985624;28;19984;-67
2023/02/04 03:47:21;;;;;;;;;;;;;;;-0.01;80.82;99365.31;4990745;28;19996;-67
2023/02/04 03:49:48;;;;;;;;;;;;;;;-0.01;80.54;99364.47;4980773;28;19930;-67
2023/02/04 03:52:14;;;;;;;;;;;;;;;-0.01;80.19;99361.78;4964391;28;19937;-67
2023/02/04 03:54:40;;;;;;;;;;;;;;;-0.01;80.11;99369.84;4984033;28;20332;-67
2023/02/04 03:57:05;;;;;;;;;;;;;;;-0.03;80.26;99366.56;4984833;28;20404;-67
2023/02/04 03:59:31;;;;;;;;;;;;;;;-0.03;80.04;99375.47;4985939;28;20483;-67
2023/02/04 04:01:57;;;;;;;;;;;;;;;-0.05;79.66;99374.00;4990837;28;19937;-67
2023/02/04 04:04:23;;;;;;;;;;;;;;;-0.09;79.76;99376.31;4983526;28;19961;-65
2023/02/04 04:06:50;;;;;;;;;;;;;;;-0.10;79.52;99369.28;4983666;28;20008;-65
2023/02/04 04:09:16;;;;;;;;;;;;;;;-0.07;79.29;99376.09;4984691;28;20431;-65
2023/02/04 04:11:41;;;;;;;;;;;;;;;-0.10;78.82;99379.22;4981472;28;19930;-65
2023/02/04 04:14:07;;;;;;;;;;;;;;;-0.13;78.81;99377.78;4946514;28;20384;-65
2023/02/04 04:16:33;;;;;;;;;;;;;;;-0.13;78.70;99379.66;4930210;28;19937;-65
2023/02/04 04:18:59;;;;;;;;;;;;;;;-0.13;78.68;99379.66;4975219;28;19930;-65
2023/02/04 04:21:25;;;;;;;;;;;;;;;-0.14;78.79;99384.19;4969730;28;20483;-65
2023/02/04 04:23:52;;;;;;;;;;;;;;;-0.15;78.47;99386.06;4976289;28;19930;-65
2023/02/04 04:26:17;;;;;;;;;;;;;;;-0.16;78.39;99387.13;4953135;28;19984;-67
2023/02/04 04:28:43;;;;;;;;;;;;;;;-0.16;78.72;99392.50;4949001;28;20349;-68
2023/02/04 04:31:09;;;;;;;;;;;;;;;-0.18;78.62;99391.84;4946479;28;19930;-66
2023/02/04 04:33:35;;;;;;;;;;;;;;;-0.17;78.44;99396.19;4980730;28;20041;-65
2023/02/04 04:36:00;;;;;;;;;;;;;;;-0.21;78.21;99400.34;4988811;28;20607;-67
2023/02/04 04:38:26;;;;;;;;;;;;;;;-0.31;78.66;99398.13;4986044;28;19930;-67
2023/02/04 04:40:53;;;;;;;;;;;;;;;-0.35;78.67;99398.75;4987368;28;19936;-65
2023/02/04 04:43:22;;;;;;;;;;;;;;;-0.32;78.82;99396.47;4972381;28;19964;-65
2023/02/04 04:45:48;;;;;;;;;;;;;;;-0.28;78.86;99402.25;4973068;28;19930;-65
2023/02/04 04:48:14;;;;;;;;;;;;;;;-0.37;79.22;99401.66;4986301;28;19930;-66
2023/02/04 04:50:39;;;;;;;;;;;;;;;-0.41;80.03;99408.47;4990068;28;19936;-67
2023/02/04 04:53:09;;;;;;;;;;;;;;;-0.41;80.38;99411.16;4967354;28;19930;-66
2023/02/04 04:55:35;;;;;;;;;;;;;;;-0.39;80.81;99414.50;4982849;28;20424;-67
2023/02/04 04:58:02;;;;;;;;;;;;;;;-0.39;80.85;99419.03;4981102;28;19930;-67
2023/02/04 05:00:28;;;;;;;;;;;;;;;-0.39;81.15;99419.03;4953881;28;19934;-66
2023/02/04 05:02:54;;;;;;;;;;;;;;;-0.38;81.47;99416.16;4975367;28;19953;-67
2023/02/04 05:05:20;;;;;;;;;;;;;;;-0.35;81.57;99417.56;4974853;28;19980;-64
2023/02/04 05:07:45;;;;;;;;;;;;;;;-0.33;81.56;99415.47;4991096;28;20076;-65
2023/02/04 05:10:11;;;;;;;;;;;;;;;-0.29;81.41;99422.09;4988752;28;19929;-65
2023/02/04 05:12:38;;;;;;;;;;;;;;;-0.28;81.51;99421.06;4989081;28;19937;-65
2023/02/04 05:15:05;;;;;;;;;;;;;;;-0.23;81.41;99423.94;4970431;28;19937;-65
2023/02/04 05:17:31;;;;;;;;;;;;;;;-0.18;81.23;99424.09;4990508;28;20308;-65
2023/02/04 05:19:57;;;;;;;;;;;;;;;-0.15;81.16;99425.56;4971497;28;19937;-65
2023/02/04 05:22:23;;;;;;;;;;;;;;;-0.16;80.67;99434.66;4975331;28;19961;-65
2023/02/04 05:24:48;;;;;;;;;;;;;;;-0.12;80.78;99440.44;4989671;28;20454;-65
2023/02/04 05:27:14;;;;;;;;;;;;;;;-0.09;80.59;99445.38;4977793;28;20466;-65
2023/02/04 05:29:40;;;;;;;;;;;;;;;-0.12;80.25;99440.44;4990682;28;20451;-65
2023/02/04 05:32:07;;;;;;;;;;;;;;;-0.11;80.20;99448.25;4991042;28;19957;-65
2023/02/04 05:34:32;;;;;;;;;;;;;;;-0.08;80.24;99447.03;4957416;28;19969;-65
2023/02/04 05:36:58;;;;;;;;;;;;;;;-0.08;80.05;99453.25;4989876;28;20341;-65
2023/02/04 05:39:24;;;;;;;;;;;;;;;-0.07;79.51;99465.63;4989751;28;19930;-66
2023/02/04 05:41:50;;;;;;;;;;;;;;;-0.09;79.28;99461.50;4987060;28;19930;-65
2023/02/04 05:44:15;;;;;;;;;;;;;;;-0.08;78.90;99466.69;4968561;28;20437;-66
2023/02/04 05:46:41;;;;;;;;;;;;;;;-0.09;78.81;99461.50;4968852;28;19962;-65
2023/02/04 05:49:09;;;;;;;;;;;;;;;-0.06;78.54;99466.44;4980815;28;19937;-65
2023/02/04 05:51:35;;;;;;;;;;;;;;;-0.04;78.15;99473.28;4987243;28;19961;-65
2023/02/04 05:54:03;;;;;;;;;;;;;;;-0.02;78.18;99476.56;4967965;28;20206;-65
2023/02/04 05:56:29;;;;;;;;;;;;;;;0.02;77.98;99476.97;4993882;28;20084;-65
2023/02/04 05:58:54;;;;;;;;;;;;;;;0.05;77.84;99481.09;4962947;28;20011;-65
2023/02/04 06:01:20;;;;;;;;;;;;;;;0.06;77.84;99486.25;4994445;28;20012;-65
2023/02/04 06:03:46;;;;;;;;;;;;;;;0.10;77.58;99486.66;4957200;28;19930;-65
2023/02/04 06:06:13;;;;;;;;;;;;;;;0.08;77.39;99492.25;4968284;28;19929;-65
2023/02/04 06:08:39;;;;;;;;;;;;;;;0.11;77.01;99496.38;4969958;28;20316;-64
2023/02/04 06:11:04;;;;;;;;;;;;;;;0.13;76.78;99500.47;5000547;28;19930;-65
2023/02/04 06:13:30;;;;;;;;;;;;;;;0.11;76.38;99505.25;4988763;28;19952;-65
2023/02/04 06:15:56;;;;;;;;;;;;;;;0.12;75.93;99508.78;4987838;28;19933;-65
2023/02/04 06:18:22;;;;;;;;;;;;;;;0.15;75.29;99513.72;4987201;28;20385;-65
2023/02/04 06:20:47;;;;;;;;;;;;;;;0.18;74.85;99513.28;4970087;28;20444;-65
2023/02/04 06:23:15;;;;;;;;;;;;;;;0.21;74.01;99520.94;4966542;28;19934;-65
2023/02/04 06:25:40;;;;;;;;;;;;;;;0.23;74.23;99520.72;5002994;28;19941;-67
2023/02/04 06:28:06;;;;;;;;;;;;;;;0.27;73.81;99525.47;4989247;28;19914;-67
2023/02/04 06:30:32;;;;;;;;;;;;;;;0.22;73.99;99525.28;4989188;28;19976;-67
2023/02/04 06:32:57;;;;;;;;;;;;;;;0.21;74.48;99534.38;4987663;28;19929;-65
2023/02/04 06:35:23;;;;;;;;;;;;;;;0.17;74.42;99519.72;4981882;28;19952;-67
2023/02/04 06:37:49;;;;;;;;;;;;;;;0.28;74.39;99526.28;4971052;28;19934;-67
2023/02/04 06:40:16;;;;;;;;;;;;;;;0.32;74.27;99535.59;4969550;28;19936;-67
2023/02/04 06:42:42;;;;;;;;;;;;;;;0.33;74.26;99533.72;4971513;28;20356;-67
2023/02/04 06:45:08;;;;;;;;;;;;;;;0.33;73.89;99545.31;4987777;28;19984;-67
2023/02/04 06:47:34;;;;;;;;;;;;;;;0.35;73.73;99537.84;4951345;28;19933;-67
2023/02/04 06:50:00;;;;;;;;;;;;;;;0.33;73.60;99533.72;4984817;28;19937;-67
2023/02/04 06:52:26;;;;;;;;;;;;;;;0.46;73.64;99548.97;4986594;28;20491;-67
2023/02/04 06:54:51;;;;;;;;;;;;;;;0.50;73.73;99552.91;4969422;28;20040;-65
2023/02/04 06:57:18;;;;;;;;;;;;;;;0.55;73.45;99553.06;4971140;28;19930;-65
2023/02/04 06:59:46;;;;;;;;;;;;;;;0.58;73.09;99549.13;4985001;28;20450;-65
2023/02/04 07:02:12;;;;;;;;;;;;;;;0.53;73.27;99563.22;4988534;28;19965;-65
2023/02/04 07:04:37;;;;;;;;;;;;;;;0.60;73.25;99557.81;4968960;28;19968;-65
2023/02/04 07:07:03;;;;;;;;;;;;;;;0.64;72.80;99559.03;4986087;28;19940;-67
2023/02/04 07:09:29;;;;;;;;;;;;;;;0.66;72.88;99568.53;4986327;28;19929;-67
2023/02/04 07:11:54;;;;;;;;;;;;;;;0.69;72.91;99565.41;4985216;28;20167;-67
2023/02/04 07:14:22;;;;;;;;;;;;;;;0.76;72.89;99575.31;4978425;28;19930;-67
2023/02/04 07:16:47;;;;;;;;;;;;;;;0.88;72.57;99578.97;4984584;28;19930;-67
2023/02/04 07:19:13;;;;;;;;;;;;;;;0.89;72.73;99569.03;4972643;28;19929;-67
2023/02/04 07:21:39;;;;;;;;;;;;;;;0.90;72.54;99579.56;4965402;28;19930;-67
2023/02/04 07:24:05;;;;;;;;;;;;;;;0.92;72.44;99582.06;4984567;28;20028;-67
2023/02/04 07:26:31;;;;;;;;;;;;;;;0.90;72.06;99584.16;4983391;28;19937;-66
2023/02/04 07:28:56;;;;;;;;;;;;;;;0.84;71.47;99583.16;4984660;28;19962;-65
2023/02/04 07:31:24;;;;;;;;;;;;;;;0.85;70.49;99580.22;4979190;28;19934;-65
2023/02/04 07:33:49;;;;;;;;;;;;;;;0.89;69.98;99586.00;4966626;28;20397;-65
2023/02/04 07:36:15;;;;;;;;;;;;;;;0.93;69.58;99583.72;4982170;28;20021;-65
2023/02/04 07:38:41;;;;;;;;;;;;;;;0.95;69.67;99585.16;4985439;28;19930;-65
2023/02/04 07:41:07;;;;;;;;;;;;;;;1.02;69.39;99586.97;4968041;28;19930;-65
2023/02/04 07:43:33;;;;;;;;;;;;;;;1.09;68.75;99591.28;4966821;28;19930;-65
2023/02/04 07:45:59;;;;;;;;;;;;;;;1.16;68.57;99585.84;5003130;28;20035;-65
2023/02/04 07:48:27;;;;;;;;;;;;;;;1.23;68.75;99591.19;4985153;28;20510;-65
2023/02/04 07:50:52;;;;;;;;;;;;;;;1.28;68.97;99599.44;4982760;28;20412;-65
2023/02/04 07:53:18;;;;;;;;;;;;;;;1.34;69.36;99600.44;4987540;28;19929;-68
2023/02/04 07:55:44;;;;;;;;;;;;;;;1.40;69.27;99596.84;4985600;28;19934;-68
2023/02/04 07:58:10;;;;;;;;;;;;;;;1.54;69.23;99597.59;4984839;28;19965;-67
2023/02/04 08:00:35;;;;;;;;;;;;;;;1.62;69.14;99599.97;4984429;28;20036;-67
2023/02/04 08:03:01;;;;;;;;;;;;;;;1.74;68.78;99596.56;4984509;28;19930;-67
2023/02/04 08:05:29;;;;;;;;;;;;;;;1.85;68.82;99603.94;4984181;28;20467;-65
2023/02/04 08:07:54;;;;;;;;;;;;;;;1.97;68.43;99594.09;4982562;28;19940;-65
2023/02/04 08:10:20;;;;;;;;;;;;;;;2.12;68.45;99607.19;4984834;28;19933;-66
2023/02/04 08:12:46;;;;;;;;;;;;;;;2.25;68.22;99603.50;4985361;28;20453;-65
2023/02/04 08:15:12;;;;;;;;;;;;;;;2.26;68.01;99594.41;4982937;28;20461;-65
2023/02/04 08:17:37;;;;;;;;;;;;;;;2.27;68.00;99606.00;4968300;28;19933;-67
2023/02/04 08:20:03;;;;;;;;;;;;;;;2.18;68.23;99610.88;4986571;28;20046;-68
2023/02/04 08:22:30;;;;;;;;;;;;;;;2.10;68.64;99614.69;4985972;28;19933;-65
2023/02/04 08:24:56;;;;;;;;;;;;;;;2.08;69.25;99618.66;4986030;28;19936;-65
2023/02/04 08:27:22;;;;;;;;;;;;;;;2.09;68.81;99615.75;4983148;28;20307;-65
2023/02/04 08:29:48;;;;;;;;;;;;;;;2.02;67.74;99614.16;4968133;28;19930;-65
2023/02/04 08:32:13;;;;;;;;;;;;;;;1.94;67.40;99624.16;4985097;28;19930;-65
2023/02/04 08:34:39;;;;;;;;;;;;;;;1.83;66.66;99631.13;4985651;28;19929;-66
2023/02/04 08:37:05;;;;;;;;;;;;;;;1.77;67.25;99631.16;5000946;28;19972;-65
2023/02/04 08:39:32;;;;;;;;;;;;;;;1.67;67.09;99624.44;4967989;28;20265;-66
2023/02/04 08:41:57;;;;;;;;;;;;;;;1.60;67.64;99631.72;4986620;28;19929;-65
2023/02/04 08:44:23;;;;;;;;;;;;;;;1.62;67.79;99631.53;4967811;28;20419;-65
2023/02/04 08:46:49;;;;;;;;;;;;;;;1.64;67.58;99632.13;4984553;28;19930;-66
2023/02/04 08:49:15;;;;;;;;;;;;;;;1.62;67.75;99634.22;4988053;28;19929;-67
2023/02/04 08:51:41;;;;;;;;;;;;;;;1.57;68.00;99640.25;4985521;28;20408;-67
2023/02/04 08:54:06;;;;;;;;;;;;;;;1.60;68.42;99642.50;4986946;28;19937;-68
2023/02/04 08:56:34;;;;;;;;;;;;;;;1.64;68.82;99646.44;4987447;28;20377;-67
2023/02/04 08:59:00;;;;;;;;;;;;;;;1.61;68.65;99643.34;4968175;28;19973;-65
2023/02/04 09:01:26;;;;;;;;;;;;;;;1.64;68.84;99641.03;4983364;28;19992;-65
2023/02/04 09:03:52;;;;;;;;;;;;;;;1.67;68.99;99646.00;4985259;28;20392;-65
2023/02/04 09:06:17;;;;;;;;;;;;;;;1.67;68.93;99648.69;4969636;28;19929;-65
2023/02/04 09:08:43;;;;;;;;;;;;;;;1.62;69.37;99650.38;4987110;28;19929;-68
2023/02/04 09:11:11;;;;;;;;;;;;;;;1.65;69.78;99647.25;4984674;28;19934;-65
2023/02/04 09:13:38;;;;;;;;;;;;;;;1.69;69.94;99646.59;4986708;28;20354;-66
2023/02/04 09:16:04;;;;;;;;;;;;;;;1.69;69.02;99654.69;4955405;28;20527;-65
2023/02/04 09:18:31;;;;;;;;;;;;;;;1.69;68.82;99653.84;4987098;28;19929;-66
2023/02/04 09:20:57;;;;;;;;;;;;;;;1.74;68.51;99656.72;4970644;28;20359;-65
2023/02/04 09:23:23;;;;;;;;;;;;;;;1.73;67.91;99652.38;4969997;28;19933;-65
2023/02/04 09:25:49;;;;;;;;;;;;;;;1.72;67.83;99657.97;4990989;28;20321;-66
2023/02/04 09:28:15;;;;;;;;;;;;;;;1.76;67.77;99660.03;4972393;28;19930;-65
2023/02/04 09:30:43;;;;;;;;;;;;;;;1.79;67.87;99656.88;4974824;28;19929;-66
2023/02/04 09:33:10;;;;;;;;;;;;;;;1.81;67.67;99662.88;4971661;28;19929;-66
2023/02/04 09:35:36;;;;;;;;;;;;;;;1.76;67.63;99659.19;4989585;28;19938;-66
2023/02/04 09:38:02;;;;;;;;;;;;;;;1.74;67.62;99664.81;4989615;28;19936;-66
2023/02/04 09:40:29;;;;;;;;;;;;;;;1.78;67.97;99666.00;4989903;28;19984;-66
2023/02/04 09:42:56;;;;;;;;;;;;;;;1.86;67.94;99655.97;4986947;28;19930;-66
2023/02/04 09:45:24;;;;;;;;;;;;;;;2.00;67.87;99664.81;4969650;28;20437;-66
2023/02/04 09:47:52;;;;;;;;;;;;;;;2.09;67.76;99667.00;4935127;28;19930;-65
2023/02/04 09:50:19;;;;;;;;;;;;;;;2.16;67.67;99669.63;4986235;28;20024;-65
2023/02/04 09:52:46;;;;;;;;;;;;;;;2.17;67.64;99670.44;4989430;28;19930;-65
2023/02/04 09:55:13;;;;;;;;;;;;;;;2.19;67.51;99671.06;4978231;28;19929;-65
2023/02/04 09:57:40;;;;;;;;;;;;;;;2.18;67.30;99674.78;4970282;28;20305;-67
2023/02/04 10:00:10;;;;;;;;;;;;;;;2.20;67.36;99675.41;4986243;28;19944;-65
2023/02/04 10:02:36;;;;;;;;;;;;;;;2.12;67.17;99676.53;4989715;28;19929;-67
2023/02/04 10:05:03;;;;;;;;;;;;;;;2.10;67.13;99687.53;4968390;28;20423;-67
2023/02/04 10:07:31;;;;;;;;;;;;;;;2.13;67.00;99680.88;4970495;28;19929;-67
2023/02/04 10:09:57;;;;;;;;;;;;;;;2.14;67.12;99685.22;4968069;28;19930;-67
2023/02/04 10:12:23;;;;;;;;;;;;;;;2.23;67.03;99688.44;4973299;28;19955;-67
2023/02/04 10:14:49;;;;;;;;;;;;;;;2.26;67.04;99688.84;4970597;28;20423;-67
2023/02/04 10:17:20;;;;;;;;;;;;;;;2.38;66.83;99691.63;4991738;28;20000;-67
2023/02/04 10:19:47;;;;;;;;;;;;;;;2.48;66.48;99698.34;4970937;28;19933;-68
2023/02/04 10:22:17;;;;;;;;;;;;;;;2.63;66.09;99700.69;4970567;28;19937;-67
2023/02/04 10:24:42;;;;;;;;;;;;;;;2.74;65.65;99704.53;4989741;28;19929;-67
2023/02/04 10:27:09;;;;;;;;;;;;;;;2.85;65.36;99706.47;4988488;28;19984;-67
2023/02/04 10:29:35;;;;;;;;;;;;;;;2.81;64.79;99698.00;4986832;28;19980;-67
2023/02/04 10:32:00;;;;;;;;;;;;;;;2.79;65.01;99704.66;4985302;28;19965;-66
2023/02/04 10:34:31;;;;;;;;;;;;;;;2.82;64.55;99701.53;4985431;28;19929;-66
2023/02/04 10:36:57;;;;;;;;;;;;;;;2.80;64.20;99701.75;4969384;28;19929;-66
2023/02/04 10:39:25;;;;;;;;;;;;;;;2.76;64.08;99710.53;4987095;28;20344;-66
2023/02/04 10:41:52;;;;;;;;;;;;;;;2.71;64.52;99719.28;4984652;28;20409;-66
2023/02/04 10:44:19;;;;;;;;;;;;;;;2.64;64.33;99713.16;4999792;28;20028;-66
2023/02/04 10:46:49;;;;;;;;;;;;;;;2.49;64.64;99718.91;4976470;28;19933;-66
2023/02/04 10:49:16;;;;;;;;;;;;;;;2.43;64.83;99725.19;4974265;28;19981;-66
2023/02/04 10:51:42;;;;;;;;;;;;;;;2.50;65.53;99734.88;4958560;28;19929;-67
2023/02/04 10:54:29;;;;;;;;;;;;;;;2.53;65.30;99726.34;4987916;28;19929;-66
2023/02/04 10:56:56;;;;;;;;;;;;;;;2.49;65.25;99729.69;4986754;28;20096;-66
2023/02/04 10:59:25;;;;;;;;;;;;;;;2.41;65.53;99728.94;4987154;28;19937;-66
2023/02/04 11:01:51;;;;;;;;;;;;;;;2.43;66.21;99733.28;4988437;28;19936;-67
2023/02/04 11:04:17;;;;;;;;;;;;;;;2.48;66.55;99733.44;4975823;28;19930;-66
2023/02/04 11:06:42;;;;;;;;;;;;;;;2.59;66.62;99740.00;4977981;28;19961;-66
2023/02/04 11:09:10;;;;;;;;;;;;;;;2.76;66.21;99737.53;4987284;28;19930;-66
2023/02/04 11:11:36;;;;;;;;;;;;;;;2.82;65.88;99739.34;4982215;28;19976;-66
2023/02/04 11:14:04;;;;;;;;;;;;;;;2.75;66.59;99741.28;4967684;28;19930;-66
2023/02/04 11:16:31;;;;;;;;;;;;;;;2.78;66.96;99743.53;4999490;28;19937;-66
2023/02/04 11:18:59;;;;;;;;;;;;;;;2.65;66.68;99741.78;4987120;28;20307;-66
2023/02/04 11:21:26;;;;;;;;;;;;;;;2.48;67.29;99747.78;4969491;28;19934;-66
2023/02/04 11:24:03;;;;;;;;;;;;;;;2.43;68.02;99742.22;4986381;28;19930;-66
2023/02/04 11:26:33;;;;;;;;;;;;;;;2.32;68.13;99757.25;4982548;28;20441;-66
2023/02/04 11:29:23;;;;;;;;;;;;;;;2.13;69.14;99753.69;4971164;28;19933;-65
2023/02/04 11:31:58;;;;;;;;;;;;;;;2.11;69.96;99756.59;4968795;28;20297;-66
2023/02/04 11:34:25;;;;;;;;;;;;;;;2.11;69.96;99747.72;4987731;28;20379;-65
2023/02/04 11:37:10;;;;;;;;;;;;;;;2.00;70.07;99754.63;4973001;28;19977;-67
2023/02/04 11:39:37;;;;;;;;;;;;;;;1.99;70.56;99763.75;4965237;28;20032;-66
2023/02/04 11:42:03;;;;;;;;;;;;;;;1.96;70.19;99758.81;4966831;28;20359;-65
2023/02/04 11:44:29;;;;;;;;;;;;;;;1.82;70.03;99761.59;4966741;28;19930;-65
2023/02/04 11:46:58;;;;;;;;;;;;;;;1.78;70.44;99767.63;4965386;28;19930;-65
2023/02/04 11:49:25;;;;;;;;;;;;;;;1.64;71.17;99761.50;4987611;28;19929;-65
2023/02/04 11:52:01;;;;;;;;;;;;;;;1.60;71.41;99765.69;4967579;28;19930;-65
2023/02/04 11:54:27;;;;;;;;;;;;;;;1.66;71.11;99770.19;4984813;28;20358;-65
2023/02/04 11:56:58;;;;;;;;;;;;;;;1.72;71.01;99774.75;4618164;28;10000671;-65
2023/02/04 11:59:24;;;;;;;;;;;;;;;1.78;70.52;99776.56;4979370;28;20308;-65
2023/02/04 12:01:49;;;;;;;;;;;;;;;1.80;70.47;99771.78;4982431;28;19933;-65
2023/02/04 12:04:23;;;;;;;;;;;;;;;1.80;70.19;99781.75;4949573;28;19930;-65
2023/02/04 12:06:56;;;;;;;;;;;;;;;1.77;70.84;99782.16;4968586;28;20057;-65
2023/02/04 12:09:23;;;;;;;;;;;;;;;1.78;71.46;99786.50;4980329;28;19937;-65
2023/02/04 12:11:51;;;;;;;;;;;;;;;1.76;71.95;99786.75;4980909;28;19930;-66
2023/02/04 12:14:17;;;;;;;;;;;;;;;1.79;71.77;99788.16;4980349;28;20316;-65
2023/02/04 12:16:43;;;;;;;;;;;;;;;1.70;72.32;99791.13;4963256;28;20452;-65
2023/02/04 12:19:11;;;;;;;;;;;;;;;1.55;72.90;99779.81;4951776;28;19980;-65
2023/02/04 12:21:38;;;;;;;;;;;;;;;1.59;73.38;99793.69;4959915;28;20112;-65
2023/02/04 12:24:04;;;;;;;;;;;;;;;1.61;73.95;99797.00;4977259;28;19934;-65
2023/02/04 12:26:30;;;;;;;;;;;;;;;1.57;73.84;99803.84;4983084;28;19936;-65
2023/02/04 12:28:58;;;;;;;;;;;;;;;1.53;73.73;99800.75;4981164;28;20032;-66
2023/02/04 12:31:24;;;;;;;;;;;;;;;1.45;73.92;99793.75;4980403;28;20028;-66
2023/02/04 12:33:50;;;;;;;;;;;;;;;1.53;73.90;99801.56;4984935;28;20029;-66
2023/02/04 12:36:16;;;;;;;;;;;;;;;1.51;73.71;99795.56;4986040;28;19936;-67
2023/02/04 12:38:43;;;;;;;;;;;;;;;1.46;73.99;99811.56;4984922;28;19929;-66
2023/02/04 12:41:09;;;;;;;;;;;;;;;1.38;73.99;99811.78;4979687;28;19929;-66
2023/02/04 12:43:34;;;;;;;;;;;;;;;1.37;74.09;99821.75;4980032;28;19956;-66
2023/02/04 12:46:00;;;;;;;;;;;;;;;1.36;74.03;99824.66;4949694;28;19929;-66
2023/02/04 12:48:26;;;;;;;;;;;;;;;1.34;73.92;99830.28;4985897;28;19929;-65